createdAt,value
2022-08-09T00:02:49.417Z,2.43
2022-08-09T00:06:18.918Z,2.60
2022-08-09T00:09:18.079Z,2.90
2022-08-09T00:12:25.282Z,2.50
2022-08-09T00:15:58.767Z,2.40
2022-08-09T00:18:59.327Z,2.60
2022-08-09T00:22:03.683Z,2.60
2022-08-09T00:25:10.202Z,2.60
2022-08-09T00:28:16.436Z,2.30
2022-08-09T00:31:58.802Z,2.63
2022-08-09T00:34:52.227Z,2.60
2022-08-09T00:37:56.786Z,2.50
2022-08-09T00:41:00.619Z,2.57
2022-08-09T00:44:10.157Z,2.30
2022-08-09T00:47:35.904Z,2.30
2022-08-09T00:50:44.253Z,2.43
2022-08-09T00:53:48.068Z,2.20
2022-08-09T00:56:56.326Z,2.60
2022-08-09T01:00:00.050Z,2.30
2022-08-09T01:03:14.994Z,2.67
2022-08-09T01:06:53.160Z,2.27
2022-08-09T01:10:03.954Z,2.50
2022-08-09T01:13:16.936Z,2.50
2022-08-09T01:16:24.750Z,2.13
2022-08-09T01:19:57.066Z,2.30
2022-08-09T01:24:02.075Z,2.20
2022-08-09T01:26:53.059Z,2.43
2022-08-09T01:30:02.144Z,2.30
2022-08-09T01:33:09.961Z,2.30
2022-08-09T01:36:17.359Z,2.40
2022-08-09T01:39:23.342Z,2.33
2022-08-09T01:42:30.813Z,2.33
2022-08-09T01:45:46.446Z,2.40
2022-08-09T01:48:53.913Z,2.20
2022-08-09T01:52:07.499Z,2.23
2022-08-09T01:55:13.288Z,2.30
2022-08-09T01:58:24.222Z,2.20
2022-08-09T02:01:57.859Z,2.13
2022-08-09T02:04:54.650Z,2.23
2022-08-09T02:08:40.463Z,2.03
2022-08-09T02:11:42.140Z,2.40
2022-08-09T02:14:52.014Z,2.40
2022-08-09T02:18:00.004Z,2.10
2022-08-09T02:21:10.561Z,2.30
2022-08-09T02:24:26.836Z,2.10
2022-08-09T02:27:57.367Z,2.10
2022-08-09T02:31:03.809Z,2.30
2022-08-09T02:34:40.684Z,2.20
2022-08-09T02:37:45.267Z,2.30
2022-08-09T02:40:49.941Z,2.30
2022-08-09T02:43:55.745Z,2.20
2022-08-09T02:47:05.049Z,2.10
2022-08-09T02:50:14.254Z,2.40
2022-08-09T02:53:26.643Z,2.20
2022-08-09T02:56:32.877Z,2.13
2022-08-09T02:59:38.446Z,2.07
2022-08-09T03:03:06.138Z,2.10
2022-08-09T03:06:14.963Z,2.30
2022-08-09T03:09:20.459Z,2.20
2022-08-09T03:12:25.623Z,2.40
2022-08-09T03:16:04.354Z,2.40
2022-08-09T03:18:57.314Z,2.20
2022-08-09T03:22:12.307Z,2.10
2022-08-09T03:25:59.443Z,2.30
2022-08-09T03:28:59.206Z,2.27
2022-08-09T03:32:03.901Z,1.87
2022-08-09T03:35:14.841Z,2.00
2022-08-09T03:38:30.349Z,2.07
2022-08-09T03:41:44.775Z,2.00
2022-08-09T03:44:52.209Z,1.90
2022-08-09T03:47:55.959Z,1.90
2022-08-09T03:51:07.140Z,2.27
2022-08-09T03:54:34.378Z,2.10
2022-08-09T03:57:53.497Z,1.90
2022-08-09T04:01:04.269Z,2.27
2022-08-09T04:04:14.508Z,2.10
2022-08-09T04:07:20.084Z,2.03
2022-08-09T04:10:29.480Z,2.07
2022-08-09T04:14:37.370Z,1.90
2022-08-09T04:16:57.656Z,2.10
2022-08-09T04:20:02.580Z,2.03
2022-08-09T04:23:09.966Z,1.90
2022-08-09T04:26:20.368Z,1.90
2022-08-09T04:29:30.042Z,1.70
2022-08-09T04:32:37.227Z,1.90
2022-08-09T04:35:42.503Z,2.10
2022-08-09T04:38:47.647Z,1.90
2022-08-09T04:41:51.406Z,1.90
2022-08-09T04:44:55.199Z,1.90
2022-08-09T04:48:02.187Z,2.10
2022-08-09T04:51:09.136Z,1.83
2022-08-09T04:54:14.731Z,1.80
2022-08-09T04:57:24.195Z,1.80
2022-08-09T05:00:31.864Z,1.90
2022-08-09T05:03:43.182Z,2.00
2022-08-09T05:06:50.545Z,1.97
2022-08-09T05:09:56.564Z,2.10
2022-08-09T05:13:01.079Z,1.60
2022-08-09T05:16:08.570Z,1.87
2022-08-09T05:19:15.047Z,1.83
2022-08-09T05:22:35.904Z,1.80
2022-08-09T05:25:44.033Z,1.87
2022-08-09T05:28:54.356Z,1.70
2022-08-09T05:32:01.252Z,1.90
2022-08-09T05:35:05.468Z,1.97
2022-08-09T05:38:09.257Z,1.67
2022-08-09T05:41:27.394Z,2.00
2022-08-09T05:44:32.679Z,1.90
2022-08-09T05:47:51.558Z,2.20
2022-08-09T05:51:16.623Z,1.60
2022-08-09T05:54:20.785Z,1.90
2022-08-09T05:57:51.177Z,1.90
2022-08-09T06:00:52.001Z,1.93
2022-08-09T06:03:58.741Z,1.70
2022-08-09T06:07:02.736Z,1.90
2022-08-09T06:10:07.193Z,2.00
2022-08-09T06:13:21.374Z,1.80
2022-08-09T06:16:25.155Z,1.90
2022-08-09T06:19:28.929Z,1.80
2022-08-09T06:22:36.845Z,1.80
2022-08-09T06:25:40.812Z,1.80
2022-08-09T06:28:48.513Z,1.70
2022-08-09T06:32:08.628Z,1.87
2022-08-09T06:35:16.020Z,1.60
2022-08-09T06:38:19.871Z,2.10
2022-08-09T06:42:08.143Z,1.87
2022-08-09T06:45:20.382Z,1.87
2022-08-09T06:48:30.696Z,1.80
2022-08-09T06:51:39.903Z,1.80
2022-08-09T06:54:43.990Z,1.90
2022-08-09T06:58:01.907Z,1.80
2022-08-09T07:01:09.053Z,1.80
2022-08-09T07:04:20.137Z,1.90
2022-08-09T07:07:58.655Z,1.60
2022-08-09T07:10:48.318Z,1.67
2022-08-09T07:14:05.263Z,1.80
2022-08-09T07:17:11.220Z,1.67
2022-08-09T07:20:16.543Z,1.83
2022-08-09T07:23:20.492Z,1.70
2022-08-09T07:26:26.763Z,2.13
2022-08-09T07:29:37.920Z,1.73
2022-08-09T07:32:47.827Z,2.00
2022-08-09T07:35:55.385Z,1.90
2022-08-09T07:39:00.637Z,2.10
2022-08-09T07:42:06.481Z,1.97
2022-08-09T07:45:22.654Z,1.90
2022-08-09T07:48:36.659Z,1.70
2022-08-09T07:52:05.143Z,1.77
2022-08-09T07:55:08.992Z,1.77
2022-08-09T07:58:14.242Z,1.93
2022-08-09T08:01:18.429Z,1.93
2022-08-09T08:04:32.055Z,1.40
2022-08-09T08:08:44.013Z,1.80
2022-08-09T08:12:08.682Z,1.83
2022-08-09T08:14:25.807Z,1.70
2022-08-09T08:17:51.918Z,2.30
2022-08-09T08:20:54.964Z,1.90
2022-08-09T08:24:00.896Z,1.90
2022-08-09T08:27:05.637Z,1.67
2022-08-09T08:30:21.080Z,2.00
2022-08-09T08:33:27.375Z,1.93
2022-08-09T08:36:52.587Z,1.90
2022-08-09T08:39:56.620Z,1.90
2022-08-09T08:43:01.178Z,2.00
2022-08-09T08:46:32.080Z,2.00
2022-08-09T08:49:38.460Z,1.90
2022-08-09T08:52:59.350Z,1.60
2022-08-09T08:56:04.663Z,1.90
2022-08-09T08:59:19.901Z,1.90
2022-08-09T09:02:31.505Z,2.13
2022-08-09T09:06:00.810Z,2.00
2022-08-09T09:09:01.846Z,2.00
2022-08-09T09:12:16.703Z,2.20
2022-08-09T09:15:28.436Z,1.90
2022-08-09T09:18:33.328Z,1.67
2022-08-09T09:21:43.069Z,1.97
2022-08-09T09:24:50.223Z,1.90
2022-08-09T09:28:06.150Z,1.77
2022-08-09T09:31:17.678Z,1.60
2022-08-09T09:34:39.241Z,1.83
2022-08-09T09:37:48.475Z,1.90
2022-08-09T09:40:53.572Z,1.90
2022-08-09T09:44:11.831Z,1.80
2022-08-09T09:47:21.541Z,1.77
2022-08-09T09:50:50.675Z,1.67
2022-08-09T09:54:17.880Z,1.70
2022-08-09T09:58:01.363Z,1.73
2022-08-09T10:00:54.344Z,1.60
2022-08-09T10:04:03.246Z,1.70
2022-08-09T10:07:25.920Z,1.70
2022-08-09T10:10:31.648Z,1.80
2022-08-09T10:13:43.593Z,1.90
2022-08-09T10:16:57.101Z,1.80
2022-08-09T10:20:15.070Z,1.83
2022-08-09T10:23:21.826Z,1.80
2022-08-09T10:26:27.017Z,1.70
2022-08-09T10:30:49.436Z,1.70
2022-08-09T10:32:59.520Z,1.90
2022-08-09T10:36:04.429Z,1.90
2022-08-09T10:39:15.543Z,1.43
2022-08-09T10:42:27.000Z,2.00
2022-08-09T10:45:35.497Z,1.70
2022-08-09T10:48:53.996Z,1.87
2022-08-09T10:52:06.461Z,1.70
2022-08-09T10:55:24.085Z,1.83
2022-08-09T10:58:32.387Z,1.70
2022-08-09T11:03:13.711Z,1.80
2022-08-09T11:05:15.494Z,1.93
2022-08-09T11:08:46.960Z,1.70
2022-08-09T11:12:17.300Z,1.50
2022-08-09T11:15:33.681Z,1.93
2022-08-09T11:18:47.281Z,1.80
2022-08-09T11:22:05.050Z,1.77
2022-08-09T11:25:26.073Z,2.00
2022-08-09T11:28:55.654Z,1.97
2022-08-09T11:32:01.890Z,1.80
2022-08-09T11:35:09.843Z,1.77
2022-08-09T11:38:18.446Z,1.80
2022-08-09T11:41:38.263Z,1.80
2022-08-09T11:44:49.195Z,1.60
2022-08-09T11:47:55.021Z,1.80
2022-08-09T11:52:49.983Z,2.03
2022-08-09T11:54:33.425Z,1.80
2022-08-09T11:58:00.778Z,1.70
2022-08-09T12:01:08.931Z,1.60
2022-08-09T12:04:20.754Z,1.87
2022-08-09T12:07:41.363Z,1.70
2022-08-09T12:10:48.441Z,2.10
2022-08-09T12:14:08.409Z,1.50
2022-08-09T12:17:27.711Z,1.40
2022-08-09T12:20:43.704Z,1.70
2022-08-09T12:24:06.248Z,1.63
2022-08-09T12:29:14.482Z,1.60
2022-08-09T12:30:44.808Z,1.87
2022-08-09T12:33:59.386Z,1.60
2022-08-09T12:37:22.096Z,1.50
2022-08-09T12:40:30.399Z,1.40
2022-08-09T12:44:06.739Z,1.50
2022-08-09T12:46:58.859Z,1.80
2022-08-09T12:50:23.692Z,1.57
2022-08-09T12:53:37.673Z,1.67
2022-08-09T12:56:51.266Z,1.53
2022-08-09T13:00:13.310Z,1.50
2022-08-09T13:03:53.432Z,1.50
2022-08-09T13:06:54.146Z,1.80
2022-08-09T13:10:02.795Z,1.57
2022-08-09T13:13:11.005Z,1.73
2022-08-09T13:16:17.591Z,1.70
2022-08-09T13:20:08.706Z,1.97
2022-08-09T13:23:01.604Z,1.60
2022-08-09T13:26:10.242Z,1.77
2022-08-09T13:29:18.155Z,1.50
2022-08-09T13:32:27.661Z,1.50
2022-08-09T13:35:34.850Z,1.63
2022-08-09T13:39:00.908Z,1.40
2022-08-09T13:42:12.492Z,1.30
2022-08-09T13:45:18.295Z,1.67
2022-08-09T13:48:24.501Z,1.70
2022-08-09T13:51:29.083Z,1.60
2022-08-09T13:54:33.643Z,1.80
2022-08-09T13:57:40.611Z,1.60
2022-08-09T14:00:50.416Z,1.80
2022-08-09T14:04:03.338Z,1.33
2022-08-09T14:07:08.877Z,2.00
2022-08-09T14:10:17.386Z,1.60
2022-08-09T14:14:23.376Z,1.57
2022-08-09T14:17:05.187Z,1.80
2022-08-09T14:20:10.844Z,1.43
2022-08-09T14:23:20.251Z,1.50
2022-08-09T14:26:40.498Z,1.70
2022-08-09T14:30:36.360Z,1.67
2022-08-09T14:33:11.104Z,1.60
2022-08-09T14:36:19.690Z,1.63
2022-08-09T14:39:45.645Z,1.70
2022-08-09T14:42:49.137Z,1.70
2022-08-09T14:46:56.647Z,1.80
2022-08-09T14:49:18.705Z,1.60
2022-08-09T14:52:27.449Z,1.53
2022-08-09T14:55:32.985Z,1.83
2022-08-09T14:58:37.962Z,1.80
2022-08-09T15:01:47.895Z,1.50
2022-08-09T15:04:54.557Z,1.60
2022-08-09T15:07:58.523Z,1.77
2022-08-09T15:11:05.171Z,2.10
2022-08-09T15:14:13.079Z,2.00
2022-08-09T15:17:17.444Z,1.70
2022-08-09T15:22:00.896Z,1.80
2022-08-09T15:24:01.003Z,2.00
2022-08-09T15:27:09.382Z,2.00
2022-08-09T15:30:59.794Z,1.90
2022-08-09T15:34:32.703Z,1.73
2022-08-09T15:37:37.807Z,1.93
2022-08-09T15:40:48.451Z,2.20
2022-08-09T15:43:52.500Z,1.90
2022-08-09T15:46:59.462Z,2.00
2022-08-09T15:50:07.935Z,1.87
2022-08-09T15:53:32.631Z,2.00
2022-08-09T15:56:37.080Z,2.10
2022-08-09T15:59:44.798Z,2.07
2022-08-09T16:02:57.083Z,1.90
2022-08-09T16:06:03.363Z,1.83
2022-08-09T16:09:08.716Z,2.17
2022-08-09T16:12:13.121Z,1.90
2022-08-09T16:16:10.788Z,1.93
2022-08-09T16:18:44.932Z,1.87
2022-08-09T16:21:52.038Z,1.93
2022-08-09T16:24:59.603Z,2.20
2022-08-09T16:28:05.953Z,1.80
2022-08-09T16:31:16.208Z,2.10
2022-08-09T16:34:20.223Z,1.90
2022-08-09T16:37:56.164Z,2.03
2022-08-09T16:40:53.052Z,1.90
2022-08-09T16:43:58.171Z,1.90
2022-08-09T16:48:43.344Z,1.77
2022-08-09T16:50:33.914Z,1.97
2022-08-09T16:53:56.315Z,1.80
2022-08-09T16:57:03.727Z,2.00
2022-08-09T17:00:10.334Z,2.00
2022-08-09T17:03:21.747Z,1.80
2022-08-09T17:06:31.399Z,1.70
2022-08-09T17:09:44.417Z,1.93
2022-08-09T17:12:51.971Z,2.10
2022-08-09T17:15:59.425Z,1.90
2022-08-09T17:19:05.345Z,1.80
2022-08-09T17:22:09.288Z,2.20
2022-08-09T17:25:14.488Z,2.10
2022-08-09T17:28:19.825Z,1.90
2022-08-09T17:31:23.576Z,2.00
2022-08-09T17:35:01.029Z,2.10
2022-08-09T17:38:11.282Z,2.00
2022-08-09T17:41:15.101Z,2.30
2022-08-09T17:44:42.615Z,2.13
2022-08-09T17:47:49.434Z,1.90
2022-08-09T17:51:08.669Z,2.10
2022-08-09T17:54:15.327Z,1.90
2022-08-09T17:58:02.081Z,2.07
2022-08-09T18:00:48.068Z,2.03
2022-08-09T18:03:54.259Z,1.90
2022-08-09T18:06:59.103Z,2.00
2022-08-09T18:10:04.173Z,2.17
2022-08-09T18:13:39.875Z,2.20
2022-08-09T18:16:34.952Z,2.20
2022-08-09T18:20:56.772Z,2.10
2022-08-09T18:24:11.082Z,2.20
2022-08-09T18:26:46.776Z,2.00
2022-08-09T18:30:42.604Z,2.23
2022-08-09T18:33:21.563Z,2.27
2022-08-09T18:36:32.343Z,2.00
2022-08-09T18:39:39.501Z,1.90
2022-08-09T18:42:46.745Z,1.80
2022-08-09T18:46:47.766Z,1.93
2022-08-09T18:49:15.907Z,2.10
2022-08-09T18:52:28.466Z,1.87
2022-08-09T18:55:45.411Z,1.90
2022-08-09T18:59:02.655Z,1.90
2022-08-09T19:02:09.155Z,2.00
2022-08-09T19:05:28.762Z,2.20
2022-08-09T19:08:39.116Z,2.10
2022-08-09T19:11:44.666Z,2.20
2022-08-09T19:14:50.365Z,2.00
2022-08-09T19:17:59.166Z,1.83
2022-08-09T19:21:05.516Z,2.00
2022-08-09T19:24:35.917Z,2.47
2022-08-09T19:27:37.361Z,2.00
2022-08-09T19:30:44.525Z,2.03
2022-08-09T19:33:51.413Z,2.20
2022-08-09T19:36:58.013Z,2.10
2022-08-09T19:40:03.978Z,2.20
2022-08-09T19:43:10.330Z,2.17
2022-08-09T19:46:35.412Z,2.20
2022-08-09T19:50:06.930Z,2.30
2022-08-09T19:53:05.623Z,2.50
2022-08-09T19:56:09.484Z,2.30
2022-08-09T19:59:57.214Z,2.07
2022-08-09T20:04:16.744Z,2.00
2022-08-09T20:06:22.577Z,2.00
2022-08-09T20:09:45.163Z,2.10
2022-08-09T20:12:49.891Z,2.00
2022-08-09T20:16:35.050Z,1.90
2022-08-09T20:19:49.619Z,1.90
2022-08-09T20:22:46.460Z,2.20
2022-08-09T20:25:53.607Z,1.90
2022-08-09T20:28:57.672Z,2.27
2022-08-09T20:32:29.221Z,2.23
2022-08-09T20:35:26.343Z,1.90
2022-08-09T20:38:52.769Z,2.00
2022-08-09T20:41:59.219Z,1.90
2022-08-09T20:45:56.396Z,2.00
2022-08-09T20:48:28.832Z,1.90
2022-08-09T20:51:41.195Z,2.00
2022-08-09T20:54:52.872Z,2.10
2022-08-09T20:58:07.881Z,2.00
2022-08-09T21:01:33.133Z,2.10
2022-08-09T21:05:53.445Z,1.87
2022-08-09T21:08:03.186Z,2.10
2022-08-09T21:11:07.703Z,2.10
2022-08-09T21:14:34.811Z,2.00
2022-08-09T21:18:25.481Z,2.10
2022-08-09T21:21:17.172Z,1.93
2022-08-09T21:24:28.766Z,1.90
2022-08-09T21:27:51.373Z,1.80
2022-08-09T21:31:01.435Z,2.20
2022-08-09T21:34:29.338Z,2.10
2022-08-09T21:37:35.645Z,1.97
2022-08-09T21:40:51.287Z,2.10
2022-08-09T21:43:56.547Z,2.00
2022-08-09T21:47:04.043Z,2.00
2022-08-09T21:50:08.796Z,1.80
2022-08-09T21:53:39.784Z,2.27
2022-08-09T21:56:54.778Z,1.80
2022-08-09T21:59:58.843Z,2.00
2022-08-09T22:03:07.429Z,1.90
2022-08-09T22:06:11.346Z,1.90
2022-08-09T22:09:16.320Z,1.77
2022-08-09T22:12:30.594Z,1.90
2022-08-09T22:15:37.067Z,1.80
2022-08-09T22:18:53.040Z,1.77
2022-08-09T22:21:58.591Z,1.80
2022-08-09T22:26:08.310Z,1.83
2022-08-09T22:28:29.696Z,1.77
2022-08-09T22:31:37.272Z,1.77
2022-08-09T22:34:42.844Z,1.80
2022-08-09T22:37:46.608Z,1.73
2022-08-09T22:40:57.935Z,1.90
2022-08-09T22:44:04.218Z,1.80
2022-08-09T22:48:11.474Z,1.97
2022-08-09T22:50:34.646Z,1.83
2022-08-09T22:53:44.458Z,1.63
2022-08-09T22:57:03.457Z,1.80
2022-08-09T23:00:08.877Z,1.67
2022-08-09T23:03:17.144Z,1.80
2022-08-09T23:06:59.817Z,1.80
2022-08-09T23:10:04.619Z,1.60
2022-08-09T23:13:12.854Z,1.60
2022-08-09T23:16:21.538Z,1.60
2022-08-09T23:19:25.440Z,1.97
2022-08-09T23:22:31.193Z,1.80
2022-08-09T23:25:35.544Z,1.70
2022-08-09T23:28:39.998Z,1.70
2022-08-09T23:31:43.944Z,1.73
2022-08-09T23:34:47.799Z,1.70
2022-08-09T23:37:53.037Z,1.80
2022-08-09T23:40:57.154Z,1.90
2022-08-09T23:44:02.711Z,1.63
2022-08-09T23:47:08.397Z,1.70
2022-08-09T23:50:13.404Z,1.87
2022-08-09T23:53:19.473Z,1.73
2022-08-09T23:56:52.145Z,1.80
